White Sands, New Mexico
Current Conditions -  °F | °C
As of 6:56 AM on Thursday 23 Oct 2014 (Local Time) from KM63 Reporting Station
Clear Clear  
Wind Chill: 58°   Ceiling: Unl
Heat Index: 58°   Visibility: 10mi
Dew Point: 51°   Wind: 5mph
Humidity: 76%   Direction: 90°E
Pressure: 30.18"   Gusts: NA
Location:  32.2605°N, 106.471°W
Report Text: KM63 231256Z AUTO 09004KT 10SM CLR 15/11 A3018 RMK AO2 SLP167 T01470105
Loading
Personal Weather Stations






























Interactive Weather Map
Tropical Storm Tracking
New forecast layout! Learn more

10-Day Weather Forecast

Advertisements
Track Severe Weather on mobile